sensor_id;sensor_type;location;lat;lon;timestamp;temperature;humidity
29453;DHT22;16424;50.956;5.320;2024-01-07T00:01:27;4.10;99.90
29453;DHT22;16424;50.956;5.320;2024-01-07T00:03:52;4.10;99.90
29453;DHT22;16424;50.956;5.320;2024-01-07T00:06:18;4.10;99.90
29453;DHT22;16424;50.956;5.320;2024-01-07T00:08:44;3.90;99.90
29453;DHT22;16424;50.956;5.320;2024-01-07T00:11:09;4.00;99.90
29453;DHT22;16424;50.956;5.320;2024-01-07T00:13:35;4.00;99.90
29453;DHT22;16424;50.956;5.320;2024-01-07T00:16:01;3.90;99.90
29453;DHT22;16424;50.956;5.320;2024-01-07T00:18:27;4.00;99.90
29453;DHT22;16424;50.956;5.320;2024-01-07T00:20:53;3.90;99.90
29453;DHT22;16424;50.956;5.320;2024-01-07T00:23:19;3.90;99.90
29453;DHT22;16424;50.956;5.320;2024-01-07T00:25:46;4.00;99.90
29453;DHT22;16424;50.956;5.320;2024-01-07T00:28:12;4.00;99.90
29453;DHT22;16424;50.956;5.320;2024-01-07T00:30:38;3.90;99.90
29453;DHT22;16424;50.956;5.320;2024-01-07T00:33:03;3.90;99.90
29453;DHT22;16424;50.956;5.320;2024-01-07T00:35:29;3.70;99.90
29453;DHT22;16424;50.956;5.320;2024-01-07T00:37:55;3.70;99.90
29453;DHT22;16424;50.956;5.320;2024-01-07T00:40:22;3.60;99.90
29453;DHT22;16424;50.956;5.320;2024-01-07T00:42:48;3.70;99.90
29453;DHT22;16424;50.956;5.320;2024-01-07T00:45:13;3.60;99.90
29453;DHT22;16424;50.956;5.320;2024-01-07T00:47:39;3.60;99.90
29453;DHT22;16424;50.956;5.320;2024-01-07T00:50:05;3.70;99.90
29453;DHT22;16424;50.956;5.320;2024-01-07T00:52:31;3.60;99.90
29453;DHT22;16424;50.956;5.320;2024-01-07T00:54:56;3.70;99.90
29453;DHT22;16424;50.956;5.320;2024-01-07T00:57:22;3.80;99.90
29453;DHT22;16424;50.956;5.320;2024-01-07T00:59:48;3.90;99.90
29453;DHT22;16424;50.956;5.320;2024-01-07T01:02:15;4.00;99.90
29453;DHT22;16424;50.956;5.320;2024-01-07T01:04:41;4.10;99.90
29453;DHT22;16424;50.956;5.320;2024-01-07T01:07:07;4.10;99.90
29453;DHT22;16424;50.956;5.320;2024-01-07T01:09:33;4.20;99.90
29453;DHT22;16424;50.956;5.320;2024-01-07T01:11:59;4.10;99.90
29453;DHT22;16424;50.956;5.320;2024-01-07T01:14:25;4.00;99.90
29453;DHT22;16424;50.956;5.320;2024-01-07T01:16:50;3.90;99.90
29453;DHT22;16424;50.956;5.320;2024-01-07T01:19:17;3.80;99.90
29453;DHT22;16424;50.956;5.320;2024-01-07T01:21:43;3.90;99.90
29453;DHT22;16424;50.956;5.320;2024-01-07T01:24:09;3.90;99.90
29453;DHT22;16424;50.956;5.320;2024-01-07T01:26:34;3.90;99.90
29453;DHT22;16424;50.956;5.320;2024-01-07T01:29:00;3.90;99.90
29453;DHT22;16424;50.956;5.320;2024-01-07T01:31:25;4.00;99.90
29453;DHT22;16424;50.956;5.320;2024-01-07T01:33:51;4.00;99.90
29453;DHT22;16424;50.956;5.320;2024-01-07T01:36:16;4.00;99.90
29453;DHT22;16424;50.956;5.320;2024-01-07T01:38:42;3.90;99.90
29453;DHT22;16424;50.956;5.320;2024-01-07T01:41:08;3.60;99.90
29453;DHT22;16424;50.956;5.320;2024-01-07T01:43:34;3.60;99.90
29453;DHT22;16424;50.956;5.320;2024-01-07T01:46:01;3.60;99.90
29453;DHT22;16424;50.956;5.320;2024-01-07T01:48:27;3.70;99.90
29453;DHT22;16424;50.956;5.320;2024-01-07T01:50:54;3.60;99.90
29453;DHT22;16424;50.956;5.320;2024-01-07T01:53:24;3.60;99.90
29453;DHT22;16424;50.956;5.320;2024-01-07T01:55:52;3.70;99.90
29453;DHT22;16424;50.956;5.320;2024-01-07T01:58:19;3.70;99.90
29453;DHT22;16424;50.956;5.320;2024-01-07T02:00:46;3.80;99.90
29453;DHT22;16424;50.956;5.320;2024-01-07T02:03:11;3.70;99.90
29453;DHT22;16424;50.956;5.320;2024-01-07T02:05:37;3.70;99.90
29453;DHT22;16424;50.956;5.320;2024-01-07T02:08:04;3.50;99.90
29453;DHT22;16424;50.956;5.320;2024-01-07T02:10:30;3.50;99.90
29453;DHT22;16424;50.956;5.320;2024-01-07T02:13:00;3.50;99.90
29453;DHT22;16424;50.956;5.320;2024-01-07T02:15:26;3.60;99.90
29453;DHT22;16424;50.956;5.320;2024-01-07T02:17:51;3.60;99.90
29453;DHT22;16424;50.956;5.320;2024-01-07T02:20:17;3.60;99.90
29453;DHT22;16424;50.956;5.320;2024-01-07T02:22:43;3.60;99.90
29453;DHT22;16424;50.956;5.320;2024-01-07T02:25:08;3.50;99.90
29453;DHT22;16424;50.956;5.320;2024-01-07T02:27:34;3.50;99.90
29453;DHT22;16424;50.956;5.320;2024-01-07T02:30:00;3.50;99.90
29453;DHT22;16424;50.956;5.320;2024-01-07T02:32:25;3.50;99.90
29453;DHT22;16424;50.956;5.320;2024-01-07T02:34:52;3.60;99.90
29453;DHT22;16424;50.956;5.320;2024-01-07T02:37:18;3.50;99.90
29453;DHT22;16424;50.956;5.320;2024-01-07T02:39:44;3.50;99.90
29453;DHT22;16424;50.956;5.320;2024-01-07T02:42:10;3.50;99.90
29453;DHT22;16424;50.956;5.320;2024-01-07T02:44:35;3.50;99.90
29453;DHT22;16424;50.956;5.320;2024-01-07T02:47:01;3.60;99.90
29453;DHT22;16424;50.956;5.320;2024-01-07T02:49:28;3.60;99.90
29453;DHT22;16424;50.956;5.320;2024-01-07T02:51:54;3.50;99.90
29453;DHT22;16424;50.956;5.320;2024-01-07T02:54:19;3.50;99.90
29453;DHT22;16424;50.956;5.320;2024-01-07T02:56:45;3.50;99.90
29453;DHT22;16424;50.956;5.320;2024-01-07T02:59:11;3.60;99.90
29453;DHT22;16424;50.956;5.320;2024-01-07T03:01:38;3.70;99.90
29453;DHT22;16424;50.956;5.320;2024-01-07T03:04:13;3.70;99.90
29453;DHT22;16424;50.956;5.320;2024-01-07T03:06:39;3.80;99.90
29453;DHT22;16424;50.956;5.320;2024-01-07T03:09:05;3.90;99.90
29453;DHT22;16424;50.956;5.320;2024-01-07T03:11:30;3.80;99.90
29453;DHT22;16424;50.956;5.320;2024-01-07T03:13:56;3.80;99.90
29453;DHT22;16424;50.956;5.320;2024-01-07T03:16:24;3.80;99.90
29453;DHT22;16424;50.956;5.320;2024-01-07T03:18:50;3.80;99.90
29453;DHT22;16424;50.956;5.320;2024-01-07T03:21:17;3.80;99.90
29453;DHT22;16424;50.956;5.320;2024-01-07T03:23:43;3.80;99.90
29453;DHT22;16424;50.956;5.320;2024-01-07T03:26:09;3.80;99.90
29453;DHT22;16424;50.956;5.320;2024-01-07T03:28:35;3.70;99.90
29453;DHT22;16424;50.956;5.320;2024-01-07T03:31:07;3.70;99.90
29453;DHT22;16424;50.956;5.320;2024-01-07T03:33:33;3.70;99.90
29453;DHT22;16424;50.956;5.320;2024-01-07T03:35:58;3.80;99.90
29453;DHT22;16424;50.956;5.320;2024-01-07T03:38:24;3.80;99.90
29453;DHT22;16424;50.956;5.320;2024-01-07T03:40:50;3.70;99.90
29453;DHT22;16424;50.956;5.320;2024-01-07T03:43:15;3.60;99.90
29453;DHT22;16424;50.956;5.320;2024-01-07T03:45:41;3.60;99.90
29453;DHT22;16424;50.956;5.320;2024-01-07T03:48:08;3.70;99.90
29453;DHT22;16424;50.956;5.320;2024-01-07T03:50:34;3.60;99.90
29453;DHT22;16424;50.956;5.320;2024-01-07T03:53:00;3.60;99.90
29453;DHT22;16424;50.956;5.320;2024-01-07T03:55:25;3.60;99.90
29453;DHT22;16424;50.956;5.320;2024-01-07T03:57:51;3.60;99.90
29453;DHT22;16424;50.956;5.320;2024-01-07T04:00:17;3.60;99.90
29453;DHT22;16424;50.956;5.320;2024-01-07T04:02:42;3.50;99.90
29453;DHT22;16424;50.956;5.320;2024-01-07T04:05:09;3.40;99.90
29453;DHT22;16424;50.956;5.320;2024-01-07T04:07:35;3.40;99.90
29453;DHT22;16424;50.956;5.320;2024-01-07T04:10:00;3.40;99.90
29453;DHT22;16424;50.956;5.320;2024-01-07T04:12:26;3.50;99.90
29453;DHT22;16424;50.956;5.320;2024-01-07T04:14:52;3.60;99.90
29453;DHT22;16424;50.956;5.320;2024-01-07T04:17:19;3.70;99.90
29453;DHT22;16424;50.956;5.320;2024-01-07T04:19:45;3.60;99.90
29453;DHT22;16424;50.956;5.320;2024-01-07T04:22:10;3.50;99.90
29453;DHT22;16424;50.956;5.320;2024-01-07T04:24:36;3.50;99.90
29453;DHT22;16424;50.956;5.320;2024-01-07T04:27:02;3.50;99.90
29453;DHT22;16424;50.956;5.320;2024-01-07T04:29:27;3.50;99.90
29453;DHT22;16424;50.956;5.320;2024-01-07T04:31:53;3.40;99.90
29453;DHT22;16424;50.956;5.320;2024-01-07T04:34:19;3.40;99.90
29453;DHT22;16424;50.956;5.320;2024-01-07T04:36:44;3.50;99.90
29453;DHT22;16424;50.956;5.320;2024-01-07T04:39:10;3.50;99.90
29453;DHT22;16424;50.956;5.320;2024-01-07T04:41:35;3.50;99.90
29453;DHT22;16424;50.956;5.320;2024-01-07T04:44:01;3.50;99.90
29453;DHT22;16424;50.956;5.320;2024-01-07T04:46:27;3.50;99.90
29453;DHT22;16424;50.956;5.320;2024-01-07T04:48:52;3.50;99.90
29453;DHT22;16424;50.956;5.320;2024-01-07T04:51:18;3.40;99.90
29453;DHT22;16424;50.956;5.320;2024-01-07T04:53:44;3.30;99.90
29453;DHT22;16424;50.956;5.320;2024-01-07T04:56:09;3.20;99.90
29453;DHT22;16424;50.956;5.320;2024-01-07T04:58:35;3.20;99.90
29453;DHT22;16424;50.956;5.320;2024-01-07T05:01:00;3.20;99.90
29453;DHT22;16424;50.956;5.320;2024-01-07T05:03:26;3.20;99.90
29453;DHT22;16424;50.956;5.320;2024-01-07T05:05:52;3.30;99.90
29453;DHT22;16424;50.956;5.320;2024-01-07T05:08:17;3.30;99.90
29453;DHT22;16424;50.956;5.320;2024-01-07T05:10:43;3.40;99.90
29453;DHT22;16424;50.956;5.320;2024-01-07T05:13:09;3.50;99.90
29453;DHT22;16424;50.956;5.320;2024-01-07T05:15:35;3.50;99.90
29453;DHT22;16424;50.956;5.320;2024-01-07T05:18:01;3.50;99.90
29453;DHT22;16424;50.956;5.320;2024-01-07T05:20:27;3.40;99.90
29453;DHT22;16424;50.956;5.320;2024-01-07T05:22:52;3.40;99.90
29453;DHT22;16424;50.956;5.320;2024-01-07T05:25:18;3.30;99.90
29453;DHT22;16424;50.956;5.320;2024-01-07T05:27:43;3.30;99.90
29453;DHT22;16424;50.956;5.320;2024-01-07T05:30:09;3.30;99.90
29453;DHT22;16424;50.956;5.320;2024-01-07T05:32:35;3.30;99.90
29453;DHT22;16424;50.956;5.320;2024-01-07T05:35:01;3.50;99.90
29453;DHT22;16424;50.956;5.320;2024-01-07T05:37:26;3.50;99.90
29453;DHT22;16424;50.956;5.320;2024-01-07T05:39:52;3.50;99.90
29453;DHT22;16424;50.956;5.320;2024-01-07T05:42:17;3.30;99.90
29453;DHT22;16424;50.956;5.320;2024-01-07T05:44:44;3.30;99.90
29453;DHT22;16424;50.956;5.320;2024-01-07T05:47:10;3.30;99.90
29453;DHT22;16424;50.956;5.320;2024-01-07T05:49:35;3.30;99.90
29453;DHT22;16424;50.956;5.320;2024-01-07T05:52:01;3.30;99.90
29453;DHT22;16424;50.956;5.320;2024-01-07T05:54:26;3.30;99.90
29453;DHT22;16424;50.956;5.320;2024-01-07T05:56:52;3.30;99.90
29453;DHT22;16424;50.956;5.320;2024-01-07T05:59:18;3.20;99.90
29453;DHT22;16424;50.956;5.320;2024-01-07T06:01:43;3.30;99.90
29453;DHT22;16424;50.956;5.320;2024-01-07T06:04:09;3.20;99.90
29453;DHT22;16424;50.956;5.320;2024-01-07T06:06:35;3.20;99.90
29453;DHT22;16424;50.956;5.320;2024-01-07T06:09:00;3.20;99.90
29453;DHT22;16424;50.956;5.320;2024-01-07T06:11:27;3.10;99.90
29453;DHT22;16424;50.956;5.320;2024-01-07T06:13:53;3.10;99.90
29453;DHT22;16424;50.956;5.320;2024-01-07T06:16:19;3.10;99.90
29453;DHT22;16424;50.956;5.320;2024-01-07T06:18:44;3.10;99.90
29453;DHT22;16424;50.956;5.320;2024-01-07T06:21:10;3.10;99.90
29453;DHT22;16424;50.956;5.320;2024-01-07T06:23:36;3.10;99.90
29453;DHT22;16424;50.956;5.320;2024-01-07T06:26:05;3.00;99.90
29453;DHT22;16424;50.956;5.320;2024-01-07T06:28:32;3.10;99.90
29453;DHT22;16424;50.956;5.320;2024-01-07T06:30:57;3.00;99.90
29453;DHT22;16424;50.956;5.320;2024-01-07T06:33:23;3.10;99.90
29453;DHT22;16424;50.956;5.320;2024-01-07T06:35:49;3.10;99.90
29453;DHT22;16424;50.956;5.320;2024-01-07T06:38:14;3.20;99.90
29453;DHT22;16424;50.956;5.320;2024-01-07T06:40:40;3.20;99.90
29453;DHT22;16424;50.956;5.320;2024-01-07T06:43:06;3.00;99.90
29453;DHT22;16424;50.956;5.320;2024-01-07T06:45:32;2.90;99.90
29453;DHT22;16424;50.956;5.320;2024-01-07T06:47:58;2.80;99.90
29453;DHT22;16424;50.956;5.320;2024-01-07T06:50:23;2.90;99.90
29453;DHT22;16424;50.956;5.320;2024-01-07T06:52:49;2.80;99.90
29453;DHT22;16424;50.956;5.320;2024-01-07T06:55:15;2.90;99.90
29453;DHT22;16424;50.956;5.320;2024-01-07T06:57:40;2.90;99.90
29453;DHT22;16424;50.956;5.320;2024-01-07T07:00:06;2.90;99.90
29453;DHT22;16424;50.956;5.320;2024-01-07T07:02:33;3.00;99.90
29453;DHT22;16424;50.956;5.320;2024-01-07T07:04:59;3.00;99.90
29453;DHT22;16424;50.956;5.320;2024-01-07T07:07:25;3.00;99.90
29453;DHT22;16424;50.956;5.320;2024-01-07T07:09:50;3.00;99.90
29453;DHT22;16424;50.956;5.320;2024-01-07T07:12:17;3.00;99.90
29453;DHT22;16424;50.956;5.320;2024-01-07T07:14:43;3.10;99.90
29453;DHT22;16424;50.956;5.320;2024-01-07T07:17:09;3.10;99.90
29453;DHT22;16424;50.956;5.320;2024-01-07T07:19:34;3.00;99.90
29453;DHT22;16424;50.956;5.320;2024-01-07T07:22:00;3.00;99.90
29453;DHT22;16424;50.956;5.320;2024-01-07T07:24:26;3.00;99.90
29453;DHT22;16424;50.956;5.320;2024-01-07T07:26:51;3.00;99.90
29453;DHT22;16424;50.956;5.320;2024-01-07T07:29:17;2.90;99.90
29453;DHT22;16424;50.956;5.320;2024-01-07T07:31:42;2.80;99.90
29453;DHT22;16424;50.956;5.320;2024-01-07T07:34:09;2.80;99.90
29453;DHT22;16424;50.956;5.320;2024-01-07T07:36:35;2.90;99.90
29453;DHT22;16424;50.956;5.320;2024-01-07T07:39:01;2.80;99.90
29453;DHT22;16424;50.956;5.320;2024-01-07T07:41:27;2.80;99.90
29453;DHT22;16424;50.956;5.320;2024-01-07T07:43:54;2.80;99.90
29453;DHT22;16424;50.956;5.320;2024-01-07T07:46:20;2.80;99.90
29453;DHT22;16424;50.956;5.320;2024-01-07T07:48:45;2.90;99.90
29453;DHT22;16424;50.956;5.320;2024-01-07T07:51:11;2.90;99.90
29453;DHT22;16424;50.956;5.320;2024-01-07T07:53:40;2.90;99.90
29453;DHT22;16424;50.956;5.320;2024-01-07T07:56:06;2.90;99.90
29453;DHT22;16424;50.956;5.320;2024-01-07T07:58:32;2.90;99.90
29453;DHT22;16424;50.956;5.320;2024-01-07T08:00:57;2.90;99.90
29453;DHT22;16424;50.956;5.320;2024-01-07T08:03:23;3.00;99.90
29453;DHT22;16424;50.956;5.320;2024-01-07T08:05:49;2.90;99.90
29453;DHT22;16424;50.956;5.320;2024-01-07T08:08:15;2.80;99.90
29453;DHT22;16424;50.956;5.320;2024-01-07T08:10:42;2.80;99.90
29453;DHT22;16424;50.956;5.320;2024-01-07T08:13:08;2.70;99.90
29453;DHT22;16424;50.956;5.320;2024-01-07T08:15:34;2.70;99.90
29453;DHT22;16424;50.956;5.320;2024-01-07T08:18:01;2.80;99.90
29453;DHT22;16424;50.956;5.320;2024-01-07T08:20:27;2.80;99.90
29453;DHT22;16424;50.956;5.320;2024-01-07T08:22:54;2.90;99.90
29453;DHT22;16424;50.956;5.320;2024-01-07T08:25:20;2.70;99.90
29453;DHT22;16424;50.956;5.320;2024-01-07T08:27:45;2.70;99.90
29453;DHT22;16424;50.956;5.320;2024-01-07T08:30:11;2.70;99.90
29453;DHT22;16424;50.956;5.320;2024-01-07T08:32:39;2.70;99.90
29453;DHT22;16424;50.956;5.320;2024-01-07T08:35:05;2.80;99.90
29453;DHT22;16424;50.956;5.320;2024-01-07T08:37:31;2.80;99.90
29453;DHT22;16424;50.956;5.320;2024-01-07T08:39:57;2.70;99.90
29453;DHT22;16424;50.956;5.320;2024-01-07T08:42:23;2.70;99.90
29453;DHT22;16424;50.956;5.320;2024-01-07T08:44:48;2.60;99.90
29453;DHT22;16424;50.956;5.320;2024-01-07T08:47:14;2.50;99.90
29453;DHT22;16424;50.956;5.320;2024-01-07T08:49:40;2.50;99.90
29453;DHT22;16424;50.956;5.320;2024-01-07T08:52:06;2.40;99.90
29453;DHT22;16424;50.956;5.320;2024-01-07T08:54:31;2.40;99.90
29453;DHT22;16424;50.956;5.320;2024-01-07T08:56:58;2.30;99.90
29453;DHT22;16424;50.956;5.320;2024-01-07T08:59:24;2.30;99.90
29453;DHT22;16424;50.956;5.320;2024-01-07T09:01:50;2.20;99.90
29453;DHT22;16424;50.956;5.320;2024-01-07T09:04:15;2.30;99.90
29453;DHT22;16424;50.956;5.320;2024-01-07T09:06:43;2.30;99.90
29453;DHT22;16424;50.956;5.320;2024-01-07T09:09:09;2.40;99.90
29453;DHT22;16424;50.956;5.320;2024-01-07T09:11:35;2.40;99.90
29453;DHT22;16424;50.956;5.320;2024-01-07T09:14:02;2.40;99.90
29453;DHT22;16424;50.956;5.320;2024-01-07T09:16:29;2.40;99.90
29453;DHT22;16424;50.956;5.320;2024-01-07T09:18:54;2.40;99.90
29453;DHT22;16424;50.956;5.320;2024-01-07T09:21:20;2.50;99.90
29453;DHT22;16424;50.956;5.320;2024-01-07T09:23:46;2.60;99.90
29453;DHT22;16424;50.956;5.320;2024-01-07T09:26:11;2.60;99.90
29453;DHT22;16424;50.956;5.320;2024-01-07T09:28:37;2.50;99.90
29453;DHT22;16424;50.956;5.320;2024-01-07T09:31:03;2.60;99.90
29453;DHT22;16424;50.956;5.320;2024-01-07T09:33:29;2.50;99.90
29453;DHT22;16424;50.956;5.320;2024-01-07T09:35:55;2.40;99.90
29453;DHT22;16424;50.956;5.320;2024-01-07T09:38:21;2.50;99.90
29453;DHT22;16424;50.956;5.320;2024-01-07T09:40:47;2.50;99.90
29453;DHT22;16424;50.956;5.320;2024-01-07T09:43:13;2.60;99.90
29453;DHT22;16424;50.956;5.320;2024-01-07T09:45:41;2.60;99.90
29453;DHT22;16424;50.956;5.320;2024-01-07T09:48:08;2.60;99.90
29453;DHT22;16424;50.956;5.320;2024-01-07T09:50:34;2.50;99.90
29453;DHT22;16424;50.956;5.320;2024-01-07T09:53:02;2.70;99.90
29453;DHT22;16424;50.956;5.320;2024-01-07T09:55:33;2.70;99.90
29453;DHT22;16424;50.956;5.320;2024-01-07T09:58:01;2.70;99.90
29453;DHT22;16424;50.956;5.320;2024-01-07T10:00:27;2.60;99.90
29453;DHT22;16424;50.956;5.320;2024-01-07T10:02:54;2.50;99.90
29453;DHT22;16424;50.956;5.320;2024-01-07T10:05:20;2.40;99.90
29453;DHT22;16424;50.956;5.320;2024-01-07T10:07:45;2.40;99.90
29453;DHT22;16424;50.956;5.320;2024-01-07T10:10:15;2.50;99.90
29453;DHT22;16424;50.956;5.320;2024-01-07T10:12:41;2.50;99.90
29453;DHT22;16424;50.956;5.320;2024-01-07T10:15:07;2.40;99.90
29453;DHT22;16424;50.956;5.320;2024-01-07T10:17:33;2.20;99.90
29453;DHT22;16424;50.956;5.320;2024-01-07T10:19:58;2.20;99.90
29453;DHT22;16424;50.956;5.320;2024-01-07T10:22:24;2.20;99.90
29453;DHT22;16424;50.956;5.320;2024-01-07T10:24:51;2.20;99.90
29453;DHT22;16424;50.956;5.320;2024-01-07T10:27:17;2.20;99.90
29453;DHT22;16424;50.956;5.320;2024-01-07T10:29:43;2.30;99.90
29453;DHT22;16424;50.956;5.320;2024-01-07T10:32:08;2.30;99.90
29453;DHT22;16424;50.956;5.320;2024-01-07T10:34:35;2.50;99.90
29453;DHT22;16424;50.956;5.320;2024-01-07T10:37:03;2.60;99.90
29453;DHT22;16424;50.956;5.320;2024-01-07T10:39:30;2.70;99.90
29453;DHT22;16424;50.956;5.320;2024-01-07T10:41:56;2.70;99.90
29453;DHT22;16424;50.956;5.320;2024-01-07T10:44:26;2.60;99.90
29453;DHT22;16424;50.956;5.320;2024-01-07T10:46:54;2.60;99.90
29453;DHT22;16424;50.956;5.320;2024-01-07T10:49:25;2.70;99.90
29453;DHT22;16424;50.956;5.320;2024-01-07T10:52:05;2.70;99.90
29453;DHT22;16424;50.956;5.320;2024-01-07T10:54:32;2.70;99.90
29453;DHT22;16424;50.956;5.320;2024-01-07T10:59:47;2.70;99.90
29453;DHT22;16424;50.956;5.320;2024-01-07T11:02:14;2.60;99.90
29453;DHT22;16424;50.956;5.320;2024-01-07T11:05:14;2.60;99.90
29453;DHT22;16424;50.956;5.320;2024-01-07T11:07:46;2.50;99.90
29453;DHT22;16424;50.956;5.320;2024-01-07T11:10:20;2.60;99.90
29453;DHT22;16424;50.956;5.320;2024-01-07T11:12:56;2.60;99.90
29453;DHT22;16424;50.956;5.320;2024-01-07T11:18:19;2.10;99.90
29453;DHT22;16424;50.956;5.320;2024-01-07T11:20:46;2.00;99.90
29453;DHT22;16424;50.956;5.320;2024-01-07T11:25:57;2.10;99.90
29453;DHT22;16424;50.956;5.320;2024-01-07T11:31:07;2.10;99.90
29453;DHT22;16424;50.956;5.320;2024-01-07T11:33:37;2.20;99.90
29453;DHT22;16424;50.956;5.320;2024-01-07T11:36:04;2.20;99.90
29453;DHT22;16424;50.956;5.320;2024-01-07T11:38:30;2.20;99.90
29453;DHT22;16424;50.956;5.320;2024-01-07T11:40:56;2.10;99.90
29453;DHT22;16424;50.956;5.320;2024-01-07T11:43:22;2.10;99.90
29453;DHT22;16424;50.956;5.320;2024-01-07T11:45:51;2.20;99.90
29453;DHT22;16424;50.956;5.320;2024-01-07T11:48:18;2.10;99.90
29453;DHT22;16424;50.956;5.320;2024-01-07T11:50:44;2.10;99.90
29453;DHT22;16424;50.956;5.320;2024-01-07T11:53:12;2.10;99.90
29453;DHT22;16424;50.956;5.320;2024-01-07T11:55:38;2.10;99.90
29453;DHT22;16424;50.956;5.320;2024-01-07T11:58:04;2.10;99.90
29453;DHT22;16424;50.956;5.320;2024-01-07T12:00:33;2.30;99.90
29453;DHT22;16424;50.956;5.320;2024-01-07T12:03:03;2.30;99.90
29453;DHT22;16424;50.956;5.320;2024-01-07T12:05:29;2.20;99.90
29453;DHT22;16424;50.956;5.320;2024-01-07T12:07:55;2.20;99.90
29453;DHT22;16424;50.956;5.320;2024-01-07T12:10:23;2.10;99.90
29453;DHT22;16424;50.956;5.320;2024-01-07T12:12:49;2.00;99.90
29453;DHT22;16424;50.956;5.320;2024-01-07T12:15:16;2.00;99.90
29453;DHT22;16424;50.956;5.320;2024-01-07T12:17:42;2.10;99.90
29453;DHT22;16424;50.956;5.320;2024-01-07T12:20:09;2.00;99.90
29453;DHT22;16424;50.956;5.320;2024-01-07T12:22:38;2.10;99.90
29453;DHT22;16424;50.956;5.320;2024-01-07T12:25:07;2.20;99.90
29453;DHT22;16424;50.956;5.320;2024-01-07T12:27:34;2.20;99.90
29453;DHT22;16424;50.956;5.320;2024-01-07T12:30:01;2.10;99.90
29453;DHT22;16424;50.956;5.320;2024-01-07T12:32:27;2.10;99.90
29453;DHT22;16424;50.956;5.320;2024-01-07T12:34:53;2.10;99.90
29453;DHT22;16424;50.956;5.320;2024-01-07T12:37:19;2.20;99.90
29453;DHT22;16424;50.956;5.320;2024-01-07T12:39:44;2.30;99.90
29453;DHT22;16424;50.956;5.320;2024-01-07T12:42:10;2.40;99.90
29453;DHT22;16424;50.956;5.320;2024-01-07T12:44:38;2.40;99.90
29453;DHT22;16424;50.956;5.320;2024-01-07T12:47:04;2.30;99.90
29453;DHT22;16424;50.956;5.320;2024-01-07T12:49:31;2.40;99.90
29453;DHT22;16424;50.956;5.320;2024-01-07T12:51:56;2.30;99.90
29453;DHT22;16424;50.956;5.320;2024-01-07T12:54:22;2.30;99.90
29453;DHT22;16424;50.956;5.320;2024-01-07T12:56:50;2.20;99.90
29453;DHT22;16424;50.956;5.320;2024-01-07T12:59:15;2.30;99.90
29453;DHT22;16424;50.956;5.320;2024-01-07T13:01:41;2.40;99.90
29453;DHT22;16424;50.956;5.320;2024-01-07T13:04:07;2.40;99.90
29453;DHT22;16424;50.956;5.320;2024-01-07T13:06:35;2.60;99.90
29453;DHT22;16424;50.956;5.320;2024-01-07T13:09:00;2.50;99.90
29453;DHT22;16424;50.956;5.320;2024-01-07T13:11:29;2.40;99.90
29453;DHT22;16424;50.956;5.320;2024-01-07T13:13:55;2.40;99.90
29453;DHT22;16424;50.956;5.320;2024-01-07T13:16:25;2.50;99.90
29453;DHT22;16424;50.956;5.320;2024-01-07T13:18:51;2.40;99.90
29453;DHT22;16424;50.956;5.320;2024-01-07T13:21:17;2.40;99.90
29453;DHT22;16424;50.956;5.320;2024-01-07T13:23:43;2.30;99.90
29453;DHT22;16424;50.956;5.320;2024-01-07T13:26:10;2.40;99.90
29453;DHT22;16424;50.956;5.320;2024-01-07T13:28:36;2.30;99.90
29453;DHT22;16424;50.956;5.320;2024-01-07T13:31:01;2.30;99.90
29453;DHT22;16424;50.956;5.320;2024-01-07T13:33:29;2.20;99.90
29453;DHT22;16424;50.956;5.320;2024-01-07T13:35:55;2.20;99.90
29453;DHT22;16424;50.956;5.320;2024-01-07T13:38:21;2.10;99.90
29453;DHT22;16424;50.956;5.320;2024-01-07T13:40:47;2.20;99.90
29453;DHT22;16424;50.956;5.320;2024-01-07T13:43:13;2.20;99.90
29453;DHT22;16424;50.956;5.320;2024-01-07T13:45:38;2.20;99.90
29453;DHT22;16424;50.956;5.320;2024-01-07T13:48:04;2.20;99.90
29453;DHT22;16424;50.956;5.320;2024-01-07T13:50:32;2.10;99.90
29453;DHT22;16424;50.956;5.320;2024-01-07T13:52:58;2.10;99.90
29453;DHT22;16424;50.956;5.320;2024-01-07T13:55:24;2.00;99.90
29453;DHT22;16424;50.956;5.320;2024-01-07T13:57:50;2.10;99.90
29453;DHT22;16424;50.956;5.320;2024-01-07T14:00:15;2.10;99.90
29453;DHT22;16424;50.956;5.320;2024-01-07T14:02:44;2.30;99.90
29453;DHT22;16424;50.956;5.320;2024-01-07T14:05:11;2.30;99.90
29453;DHT22;16424;50.956;5.320;2024-01-07T14:07:40;2.30;99.90
29453;DHT22;16424;50.956;5.320;2024-01-07T14:10:07;2.30;99.90
29453;DHT22;16424;50.956;5.320;2024-01-07T14:12:34;2.30;99.90
29453;DHT22;16424;50.956;5.320;2024-01-07T14:15:00;2.30;99.90
29453;DHT22;16424;50.956;5.320;2024-01-07T14:17:26;2.30;99.90
29453;DHT22;16424;50.956;5.320;2024-01-07T14:19:51;2.10;99.90
29453;DHT22;16424;50.956;5.320;2024-01-07T14:22:20;2.00;99.90
29453;DHT22;16424;50.956;5.320;2024-01-07T14:24:46;1.90;99.90
29453;DHT22;16424;50.956;5.320;2024-01-07T14:27:11;1.90;99.90
29453;DHT22;16424;50.956;5.320;2024-01-07T14:29:37;1.90;99.90
29453;DHT22;16424;50.956;5.320;2024-01-07T14:32:05;1.80;99.90
29453;DHT22;16424;50.956;5.320;2024-01-07T14:34:31;1.70;99.90
29453;DHT22;16424;50.956;5.320;2024-01-07T14:36:57;1.70;99.90
29453;DHT22;16424;50.956;5.320;2024-01-07T14:39:22;1.70;99.90
29453;DHT22;16424;50.956;5.320;2024-01-07T14:41:48;1.70;99.90
29453;DHT22;16424;50.956;5.320;2024-01-07T14:44:14;1.80;99.90
29453;DHT22;16424;50.956;5.320;2024-01-07T14:46:40;1.90;99.90
29453;DHT22;16424;50.956;5.320;2024-01-07T14:49:06;1.80;99.90
29453;DHT22;16424;50.956;5.320;2024-01-07T14:51:32;1.80;99.90
29453;DHT22;16424;50.956;5.320;2024-01-07T14:53:58;1.80;99.90
29453;DHT22;16424;50.956;5.320;2024-01-07T14:56:23;1.70;99.90
29453;DHT22;16424;50.956;5.320;2024-01-07T14:58:49;1.60;99.90
29453;DHT22;16424;50.956;5.320;2024-01-07T15:01:16;1.70;99.90
29453;DHT22;16424;50.956;5.320;2024-01-07T15:03:41;1.60;99.90
29453;DHT22;16424;50.956;5.320;2024-01-07T15:06:07;1.50;99.90
29453;DHT22;16424;50.956;5.320;2024-01-07T15:08:34;1.50;99.90
29453;DHT22;16424;50.956;5.320;2024-01-07T15:11:01;1.50;99.90
29453;DHT22;16424;50.956;5.320;2024-01-07T15:13:27;1.40;99.90
29453;DHT22;16424;50.956;5.320;2024-01-07T15:15:53;1.40;99.90
29453;DHT22;16424;50.956;5.320;2024-01-07T15:18:18;1.40;99.90
29453;DHT22;16424;50.956;5.320;2024-01-07T15:20:45;1.40;99.90
29453;DHT22;16424;50.956;5.320;2024-01-07T15:23:10;1.40;99.90
29453;DHT22;16424;50.956;5.320;2024-01-07T15:25:36;1.20;99.90
29453;DHT22;16424;50.956;5.320;2024-01-07T15:28:02;1.00;99.90
29453;DHT22;16424;50.956;5.320;2024-01-07T15:30:31;1.00;99.90
29453;DHT22;16424;50.956;5.320;2024-01-07T15:32:56;1.00;99.90
29453;DHT22;16424;50.956;5.320;2024-01-07T15:35:22;1.00;99.90
29453;DHT22;16424;50.956;5.320;2024-01-07T15:37:48;1.00;99.90
29453;DHT22;16424;50.956;5.320;2024-01-07T15:40:14;1.10;99.90
29453;DHT22;16424;50.956;5.320;2024-01-07T15:42:40;1.00;99.90
29453;DHT22;16424;50.956;5.320;2024-01-07T15:45:06;1.00;99.90
29453;DHT22;16424;50.956;5.320;2024-01-07T15:47:31;1.00;99.90
29453;DHT22;16424;50.956;5.320;2024-01-07T15:50:00;0.90;99.90